createdAt,value
2022-12-28T00:00:31.385Z,23.7
2022-12-28T00:05:49.866Z,23.7
2022-12-28T00:11:25.472Z,23.7
2022-12-28T00:16:49.734Z,23.7
2022-12-28T00:22:08.139Z,23.7
2022-12-28T00:27:26.361Z,23.7
2022-12-28T00:32:44.813Z,23.7
2022-12-28T00:38:03.314Z,23.7
2022-12-28T00:43:21.855Z,23.7
2022-12-28T00:48:40.053Z,23.7
2022-12-28T00:53:58.803Z,23.7
2022-12-28T00:59:17.050Z,23.7
2022-12-28T01:04:34.941Z,23.7
2022-12-28T01:09:37.808Z,23.7
2022-12-28T01:14:56.332Z,23.7
2022-12-28T01:20:14.520Z,23.7
2022-12-28T01:25:17.109Z,23.7
2022-12-28T01:30:39.321Z,23.8
2022-12-28T01:35:57.293Z,23.8
2022-12-28T01:41:15.803Z,23.8
2022-12-28T01:46:34.297Z,23.8
2022-12-28T01:51:52.211Z,23.8
2022-12-28T01:57:10.706Z,23.8
2022-12-28T02:02:30.529Z,23.8
2022-12-28T02:07:49.447Z,23.8
2022-12-28T02:13:08.309Z,23.8
2022-12-28T02:18:26.659Z,23.8
2022-12-28T02:23:44.834Z,23.8
2022-12-28T02:29:03.323Z,23.8
2022-12-28T02:34:21.831Z,23.8
2022-12-28T02:39:40.006Z,23.8
2022-12-28T02:44:58.509Z,23.8
2022-12-28T02:50:16.748Z,23.8
2022-12-28T02:55:34.672Z,23.8
2022-12-28T03:00:52.604Z,23.8
2022-12-28T03:06:19.740Z,23.8
2022-12-28T03:11:25.299Z,23.8
2022-12-28T03:16:43.772Z,23.8
2022-12-28T03:22:02.286Z,23.9
2022-12-28T03:27:06.025Z,23.9
2022-12-28T03:32:24.263Z,23.9
2022-12-28T03:37:42.763Z,23.9
2022-12-28T03:43:00.944Z,23.9
2022-12-28T03:48:19.440Z,23.9
2022-12-28T03:53:37.705Z,23.9
2022-12-28T03:58:55.935Z,23.9
2022-12-28T04:04:17.422Z,23.9
2022-12-28T04:09:36.189Z,23.9
2022-12-28T04:14:54.661Z,23.9
2022-12-28T04:20:13.173Z,23.9
2022-12-28T04:25:31.714Z,23.9
2022-12-28T04:30:50.486Z,23.9
2022-12-28T04:36:08.971Z,23.9
2022-12-28T04:41:27.772Z,23.9
2022-12-28T04:46:46.102Z,23.9
2022-12-28T04:52:04.615Z,23.9
2022-12-28T04:57:23.123Z,23.9
2022-12-28T05:02:46.641Z,23.9
2022-12-28T05:08:04.991Z,23.9
2022-12-28T05:13:23.266Z,23.9
2022-12-28T05:18:41.472Z,23.9
2022-12-28T05:24:00.261Z,23.9
2022-12-28T05:29:18.759Z,23.9
2022-12-28T05:34:37.276Z,23.9
2022-12-28T05:39:55.754Z,23.9
2022-12-28T05:45:14.285Z,23.9
2022-12-28T05:50:32.200Z,23.9
2022-12-28T05:55:50.695Z,23.9
2022-12-28T06:01:09.494Z,23.9
2022-12-28T06:06:27.989Z,23.9
2022-12-28T06:11:46.487Z,23.9
2022-12-28T06:17:04.436Z,23.9
2022-12-28T06:22:23.209Z,23.9
2022-12-28T06:27:41.681Z,23.9
2022-12-28T06:33:00.503Z,23.9
2022-12-28T06:38:18.469Z,23.9
2022-12-28T06:43:36.665Z,23.9
2022-12-28T06:48:54.907Z,23.9
2022-12-28T06:54:13.164Z,23.9
2022-12-28T06:59:31.641Z,23.9
2022-12-28T07:04:49.892Z,23.9
2022-12-28T07:09:52.178Z,23.9
2022-12-28T07:15:10.672Z,23.9
2022-12-28T07:20:29.199Z,23.9
2022-12-28T07:25:47.688Z,23.9
2022-12-28T07:31:06.324Z,23.9
2022-12-28T07:36:24.544Z,23.9
2022-12-28T07:41:43.085Z,24
2022-12-28T07:47:01.859Z,24
2022-12-28T07:52:20.077Z,24
2022-12-28T07:57:37.966Z,24
2022-12-28T08:02:56.215Z,24
2022-12-28T08:08:15.021Z,24
2022-12-28T08:13:33.216Z,24
2022-12-28T08:18:51.448Z,24
2022-12-28T08:24:09.991Z,24
2022-12-28T08:29:28.149Z,24
2022-12-28T08:34:46.322Z,24
2022-12-28T08:40:04.832Z,23.9
2022-12-28T08:45:23.306Z,23.6
2022-12-28T08:50:41.834Z,23.6
2022-12-28T08:56:07.043Z,23.6
2022-12-28T09:01:26.037Z,23.6
2022-12-28T09:06:44.510Z,23.6
2022-12-28T09:12:02.751Z,23.7
2022-12-28T09:17:20.641Z,23.7
2022-12-28T09:22:39.418Z,23.7
2022-12-28T09:28:00.119Z,23.7
2022-12-28T09:33:18.579Z,23.7
2022-12-28T09:38:37.175Z,23.7
2022-12-28T09:43:55.684Z,23.7
2022-12-28T09:49:13.864Z,23.7
2022-12-28T09:54:33.741Z,23.7
2022-12-28T09:59:52.236Z,23.7
2022-12-28T10:05:10.982Z,23.7
2022-12-28T10:10:29.739Z,23.7
2022-12-28T10:15:48.066Z,23.7
2022-12-28T10:21:06.642Z,23.7
2022-12-28T10:26:24.972Z,23.7
2022-12-28T10:31:43.592Z,23.7
2022-12-28T10:37:02.561Z,23.7
2022-12-28T10:42:20.770Z,23.7
2022-12-28T10:47:39.279Z,23.7
2022-12-28T10:52:57.442Z,23.7
2022-12-28T10:58:34.266Z,23.7
2022-12-28T11:03:52.988Z,23.7
2022-12-28T11:09:11.311Z,23.7
2022-12-28T11:14:29.514Z,23.7
2022-12-28T11:19:47.781Z,23.7
2022-12-28T11:25:05.958Z,23.7
2022-12-28T11:30:24.442Z,23.7
2022-12-28T11:35:42.955Z,23.7
2022-12-28T11:41:01.443Z,23.7
2022-12-28T11:46:19.641Z,23.7
2022-12-28T11:51:38.175Z,23.7
2022-12-28T11:56:56.103Z,23.7
2022-12-28T12:02:14.392Z,23.7
2022-12-28T12:07:33.183Z,23.7
2022-12-28T12:12:51.682Z,23.7
2022-12-28T12:18:10.439Z,23.6
2022-12-28T12:23:28.687Z,23.6
2022-12-28T12:28:47.163Z,23.6
2022-12-28T12:34:05.392Z,23.6
2022-12-28T12:39:23.893Z,23.6
2022-12-28T12:44:42.633Z,23.6
2022-12-28T12:50:00.853Z,23.6
2022-12-28T12:55:19.369Z,23.6
2022-12-28T13:00:37.560Z,23.6
2022-12-28T13:05:56.054Z,23.6
2022-12-28T13:11:14.017Z,23.6
2022-12-28T13:16:32.816Z,23.6
2022-12-28T13:21:51.294Z,23.6
2022-12-28T13:27:12.900Z,23.6
2022-12-28T13:32:38.792Z,23.6
2022-12-28T13:37:57.023Z,23.6
2022-12-28T13:43:15.261Z,23.5
2022-12-28T13:48:33.735Z,23.5
2022-12-28T13:53:52.222Z,23.5
2022-12-28T13:59:10.455Z,23.5
2022-12-28T14:04:55.014Z,23.5
2022-12-28T14:10:13.650Z,23.6
2022-12-28T14:15:41.626Z,23.5
2022-12-28T14:20:59.952Z,23.5
2022-12-28T14:26:17.890Z,23.5
2022-12-28T14:31:36.634Z,23.5
2022-12-28T14:36:55.714Z,23.5
2022-12-28T14:42:14.024Z,23.5
2022-12-28T14:47:33.612Z,23.5
2022-12-28T14:52:52.110Z,23.5
2022-12-28T14:58:10.602Z,23.5
2022-12-28T15:03:28.725Z,23.5
2022-12-28T15:08:46.779Z,23.5
2022-12-28T15:14:04.980Z,23.5
2022-12-28T15:19:23.798Z,23.5
2022-12-28T15:24:42.431Z,23.5
2022-12-28T15:30:14.687Z,23.5
2022-12-28T15:35:41.140Z,23.5
2022-12-28T15:40:59.613Z,23.5
2022-12-28T15:46:18.377Z,23.5
2022-12-28T15:51:36.416Z,23.5
2022-12-28T15:56:55.176Z,23.5
2022-12-28T16:02:14.267Z,23.5
2022-12-28T16:07:33.213Z,23.4
2022-12-28T16:12:51.693Z,23.4
2022-12-28T16:18:10.182Z,23.4
2022-12-28T16:23:28.134Z,23.4
2022-12-28T16:28:46.306Z,23.4
2022-12-28T16:34:04.527Z,23.4
2022-12-28T16:39:23.041Z,23.4
2022-12-28T16:44:41.790Z,23.4
2022-12-28T16:49:59.747Z,23.4
2022-12-28T16:55:17.747Z,23.4
2022-12-28T17:00:36.479Z,23.4
2022-12-28T17:05:54.965Z,23.4
2022-12-28T17:11:13.244Z,23.4
2022-12-28T17:16:31.876Z,23.4
2022-12-28T17:21:50.401Z,23.4
2022-12-28T17:27:19.193Z,23.4
2022-12-28T17:32:38.171Z,23.4
2022-12-28T17:37:56.932Z,23.4
2022-12-28T17:43:15.193Z,23.4
2022-12-28T17:48:33.385Z,23.4
2022-12-28T17:53:51.612Z,23.4
2022-12-28T17:59:10.122Z,23.4
2022-12-28T18:04:28.595Z,23.4
2022-12-28T18:09:47.368Z,23.4
2022-12-28T18:15:05.329Z,23.4
2022-12-28T18:20:23.832Z,23.3
2022-12-28T18:25:42.031Z,23.4
2022-12-28T18:31:03.272Z,23.4
2022-12-28T18:36:22.020Z,23.4
2022-12-28T18:41:40.507Z,23.4
2022-12-28T18:46:59.033Z,23.4
2022-12-28T18:52:17.236Z,23.4
2022-12-28T18:57:35.435Z,23.4
2022-12-28T19:02:54.029Z,23.3
2022-12-28T19:08:12.564Z,23.3
2022-12-28T19:13:30.769Z,23.3
2022-12-28T19:18:49.321Z,23.3
2022-12-28T19:24:07.512Z,23.3
2022-12-28T19:29:25.733Z,23.3
2022-12-28T19:34:44.553Z,23.3
2022-12-28T19:40:02.455Z,23.3
2022-12-28T19:45:20.966Z,23.3
2022-12-28T19:50:39.505Z,23.3
2022-12-28T19:55:57.461Z,23.3
2022-12-28T20:01:15.527Z,23.3
2022-12-28T20:06:33.976Z,23.3
2022-12-28T20:11:51.895Z,23.3
2022-12-28T20:17:10.398Z,23.3
2022-12-28T20:22:28.945Z,23.3
2022-12-28T20:27:47.440Z,23.3
2022-12-28T20:33:06.192Z,23.3
2022-12-28T20:38:25.515Z,23.3
2022-12-28T20:43:43.445Z,23.3
2022-12-28T20:49:01.930Z,23.3
2022-12-28T20:54:20.786Z,23.3
2022-12-28T20:59:39.117Z,23.3
2022-12-28T21:04:57.600Z,23.3
2022-12-28T21:10:16.155Z,23.3
2022-12-28T21:15:34.671Z,23.2
2022-12-28T21:20:53.139Z,23.2
2022-12-28T21:26:11.963Z,23.2
2022-12-28T21:31:30.262Z,23.2
2022-12-28T21:36:48.531Z,23.2
2022-12-28T21:42:06.516Z,23.2
2022-12-28T21:47:25.061Z,23.2
2022-12-28T21:52:43.831Z,23.2
2022-12-28T21:58:02.351Z,23.2
2022-12-28T22:03:21.026Z,23.2
2022-12-28T22:08:39.464Z,23.2
2022-12-28T22:13:57.451Z,23.2
2022-12-28T22:19:15.953Z,23.2
2022-12-28T22:24:34.725Z,23.2
2022-12-28T22:29:54.070Z,23.2
2022-12-28T22:35:14.016Z,23.2
2022-12-28T22:40:32.239Z,23.2
2022-12-28T22:45:50.872Z,23.2
2022-12-28T22:51:09.563Z,23.2
2022-12-28T22:56:28.046Z,23.2
2022-12-28T23:01:46.898Z,23.2
2022-12-28T23:07:05.027Z,23.2
2022-12-28T23:12:23.800Z,23.2
2022-12-28T23:17:42.332Z,23.2
2022-12-28T23:23:00.963Z,23.2
2022-12-28T23:28:19.463Z,23.2
2022-12-28T23:33:37.991Z,23.2
2022-12-28T23:38:56.196Z,23.2
2022-12-28T23:44:14.705Z,23.2
2022-12-28T23:49:33.541Z,23.2
2022-12-28T23:54:51.998Z,23.2
2022-12-28T23:59:55.148Z,23.2
